createdAt,value
2017-09-23T00:00:35.337Z,99.99
2017-09-23T00:01:44.204Z,99.99
2017-09-23T00:02:53.068Z,99.99
2017-09-23T00:04:01.611Z,99.99
2017-09-23T00:05:10.478Z,99.99
2017-09-23T00:06:19.343Z,99.99
2017-09-23T00:07:27.889Z,99.99
2017-09-23T00:08:36.430Z,99.99
2017-09-23T00:09:44.970Z,99.99
2017-09-23T00:10:53.512Z,99.99
2017-09-23T00:12:02.056Z,99.99
2017-09-23T00:13:10.603Z,99.99
2017-09-23T00:14:19.147Z,99.99
2017-09-23T00:15:28.014Z,99.99
2017-09-23T00:16:36.881Z,99.99
2017-09-23T00:17:46.065Z,99.99
2017-09-23T00:18:54.932Z,99.99
2017-09-23T00:20:03.801Z,99.99
2017-09-23T00:21:12.346Z,99.99
2017-09-23T00:22:21.211Z,99.99
2017-09-23T00:23:30.139Z,99.99
2017-09-23T00:24:39.003Z,99.99
2017-09-23T00:25:47.548Z,99.99
2017-09-23T00:26:57.570Z,99.99
2017-09-23T00:28:06.436Z,99.99
2017-09-23T00:29:15.304Z,99.99
2017-09-23T00:30:23.845Z,99.99
2017-09-23T00:31:32.395Z,99.99
2017-09-23T00:32:40.943Z,99.99
2017-09-23T00:33:50.138Z,99.99
2017-09-23T00:34:59.331Z,99.99
2017-09-23T00:36:07.876Z,99.99
2017-09-23T00:37:16.742Z,99.99
2017-09-23T00:38:25.610Z,99.99
2017-09-23T00:39:34.155Z,99.99
2017-09-23T00:40:42.701Z,99.99
2017-09-23T00:41:51.563Z,99.99
2017-09-23T00:43:00.113Z,99.99
2017-09-23T00:44:09.623Z,99.99
2017-09-23T00:45:18.168Z,99.99
2017-09-23T00:46:27.355Z,99.99
2017-09-23T00:47:35.900Z,99.99
2017-09-23T00:48:44.445Z,99.99
2017-09-23T00:49:53.635Z,99.99
2017-09-23T00:51:02.180Z,99.99
2017-09-23T00:52:11.380Z,99.99
2017-09-23T00:53:19.922Z,99.99
2017-09-23T00:54:28.791Z,99.99
2017-09-23T00:55:37.335Z,99.99
2017-09-23T00:56:45.883Z,99.99
2017-09-23T00:57:55.395Z,99.99
2017-09-23T00:59:04.263Z,99.99
2017-09-23T01:00:13.455Z,99.99
2017-09-23T01:01:22.001Z,99.99
2017-09-23T01:02:30.549Z,99.99
2017-09-23T01:03:39.410Z,99.99
2017-09-23T01:04:48.600Z,99.99
2017-09-23T01:05:57.796Z,99.99
2017-09-23T01:07:06.663Z,99.99
2017-09-23T01:08:15.534Z,99.99
2017-09-23T01:09:24.721Z,99.99
2017-09-23T01:10:33.590Z,99.99
2017-09-23T01:11:42.781Z,99.99
2017-09-23T01:12:51.646Z,99.99
2017-09-23T01:14:00.517Z,99.99
2017-09-23T01:15:09.063Z,99.99
2017-09-23T01:16:17.609Z,99.99
2017-09-23T01:17:26.486Z,99.99
2017-09-23T01:18:35.029Z,99.99
2017-09-23T01:19:44.216Z,99.99
2017-09-23T01:20:53.083Z,99.99
2017-09-23T01:22:01.628Z,99.99
2017-09-23T01:23:10.810Z,99.99
2017-09-23T01:24:19.354Z,99.99
2017-09-23T01:25:28.220Z,99.99
2017-09-23T01:26:36.766Z,99.99
2017-09-23T01:27:45.956Z,99.99
2017-09-23T01:28:54.502Z,99.99
2017-09-23T01:30:03.094Z,99.99
2017-09-23T01:31:11.983Z,99.99
2017-09-23T01:32:20.850Z,99.99
2017-09-23T01:33:30.365Z,99.99
2017-09-23T01:34:39.232Z,99.99
2017-09-23T01:35:48.104Z,99.99
2017-09-23T01:36:56.649Z,99.99
2017-09-23T01:38:05.842Z,99.99
2017-09-23T01:39:14.712Z,99.99
2017-09-23T01:40:23.590Z,99.99
2017-09-23T01:41:32.122Z,99.99
2017-09-23T01:42:40.993Z,99.99
2017-09-23T01:43:49.857Z,99.99
2017-09-23T01:44:58.402Z,99.99
2017-09-23T01:46:07.273Z,99.99
2017-09-23T01:47:16.138Z,99.99
2017-09-23T01:48:25.006Z,99.99
2017-09-23T01:49:33.870Z,99.99
2017-09-23T01:50:42.737Z,99.99
2017-09-23T01:51:51.601Z,99.99
2017-09-23T01:53:00.147Z,99.99
2017-09-23T01:54:09.017Z,99.99
2017-09-23T01:55:17.559Z,99.99
2017-09-23T01:56:26.745Z,99.99
2017-09-23T01:57:35.615Z,99.99
2017-09-23T01:58:44.800Z,99.99
2017-09-23T01:59:53.666Z,99.99
2017-09-23T02:01:02.213Z,99.99
2017-09-23T02:02:11.404Z,99.99
2017-09-23T02:03:20.591Z,99.99
2017-09-23T02:04:29.137Z,99.99
2017-09-23T02:05:38.005Z,99.99
2017-09-23T02:06:47.194Z,99.99
2017-09-23T02:07:55.738Z,99.99
2017-09-23T02:09:04.607Z,99.99
2017-09-23T02:10:13.797Z,99.99
2017-09-23T02:11:22.341Z,99.99
2017-09-23T02:12:31.532Z,99.99
2017-09-23T02:13:40.398Z,99.99
2017-09-23T02:14:49.265Z,99.99
2017-09-23T02:15:57.812Z,99.99
2017-09-23T02:17:06.358Z,99.99
2017-09-23T02:18:15.550Z,99.99
2017-09-23T02:19:24.099Z,99.99
2017-09-23T02:20:32.958Z,99.99
2017-09-23T02:21:41.827Z,99.99
2017-09-23T02:22:51.016Z,99.99
2017-09-23T02:23:59.883Z,99.99
2017-09-23T02:25:08.429Z,99.99
2017-09-23T02:26:17.299Z,99.99
2017-09-23T02:27:25.844Z,99.99
2017-09-23T02:28:34.713Z,99.99
2017-09-23T02:29:43.583Z,99.99
2017-09-23T02:30:52.769Z,99.99
2017-09-23T02:32:01.312Z,99.99
2017-09-23T02:33:10.182Z,99.99
2017-09-23T02:34:18.726Z,99.99
2017-09-23T02:35:27.595Z,99.99
2017-09-23T02:36:36.145Z,99.99
2017-09-23T02:37:45.011Z,99.99
2017-09-23T02:38:54.202Z,99.99
2017-09-23T02:40:03.389Z,99.99
2017-09-23T02:41:12.587Z,99.99
2017-09-23T02:42:21.136Z,99.99
2017-09-23T02:43:30.337Z,99.99
2017-09-23T02:44:39.526Z,99.99
2017-09-23T02:45:48.397Z,99.99
2017-09-23T02:46:56.941Z,99.99
2017-09-23T02:48:06.133Z,99.99
2017-09-23T02:49:14.677Z,99.99
2017-09-23T02:50:23.867Z,99.99
2017-09-23T02:51:32.411Z,99.99
2017-09-23T02:52:41.277Z,99.99
2017-09-23T02:53:50.147Z,99.99
2017-09-23T02:54:59.340Z,99.99
2017-09-23T02:56:08.216Z,99.99
2017-09-23T02:57:17.080Z,99.99
2017-09-23T02:58:25.948Z,99.99
2017-09-23T02:59:34.493Z,99.99
2017-09-23T03:00:43.034Z,99.99
2017-09-23T03:01:51.578Z,99.99
2017-09-23T03:03:00.764Z,99.99
2017-09-23T03:04:09.305Z,99.99
2017-09-23T03:05:17.850Z,99.99
2017-09-23T03:06:26.718Z,99.99
2017-09-23T03:07:35.261Z,99.99
2017-09-23T03:08:44.456Z,99.99
2017-09-23T03:09:53.319Z,99.99
2017-09-23T03:11:02.183Z,99.99
2017-09-23T03:12:11.047Z,99.99
2017-09-23T03:13:19.591Z,99.99
2017-09-23T03:14:28.459Z,99.99
2017-09-23T03:15:37.325Z,99.99
2017-09-23T03:16:46.190Z,99.99
2017-09-23T03:17:54.736Z,99.99
2017-09-23T03:19:03.928Z,99.99
2017-09-23T03:20:12.804Z,99.99
2017-09-23T03:21:21.351Z,99.99
2017-09-23T03:22:29.894Z,99.99
2017-09-23T03:23:38.762Z,99.99
2017-09-23T03:24:47.632Z,99.99
2017-09-23T03:25:56.819Z,99.99
2017-09-23T03:27:06.015Z,99.99
2017-09-23T03:28:14.559Z,99.99
2017-09-23T03:29:23.102Z,99.99
2017-09-23T03:30:31.973Z,99.99
2017-09-23T03:31:40.846Z,99.99
2017-09-23T03:32:49.387Z,99.99
2017-09-23T03:33:58.256Z,99.99
2017-09-23T03:35:07.124Z,99.99
2017-09-23T03:36:16.313Z,99.99
2017-09-23T03:37:25.182Z,99.99
2017-09-23T03:38:34.376Z,99.99
2017-09-23T03:39:42.923Z,99.99
2017-09-23T03:40:51.789Z,99.99
2017-09-23T03:42:00.661Z,99.99
2017-09-23T03:43:09.529Z,99.99
2017-09-23T03:44:18.072Z,99.99
2017-09-23T03:45:27.260Z,99.99
2017-09-23T03:46:36.130Z,99.99
2017-09-23T03:47:44.671Z,99.99
2017-09-23T03:48:53.859Z,99.99
2017-09-23T03:50:03.375Z,99.99
2017-09-23T03:51:12.240Z,99.99
2017-09-23T03:52:20.785Z,99.99
2017-09-23T03:53:29.972Z,99.99
2017-09-23T03:54:38.516Z,99.99
2017-09-23T03:55:47.060Z,99.99
2017-09-23T03:56:55.606Z,99.99
2017-09-23T03:58:04.150Z,99.99
2017-09-23T03:59:12.691Z,99.99
2017-09-23T04:00:21.235Z,99.99
2017-09-23T04:01:29.783Z,99.99
2017-09-23T04:02:38.654Z,99.99
2017-09-23T04:03:47.209Z,99.99
2017-09-23T04:04:55.745Z,99.99
2017-09-23T04:06:04.288Z,99.99
2017-09-23T04:07:12.837Z,99.99
2017-09-23T04:08:21.705Z,99.99
2017-09-23T04:09:30.251Z,99.99
2017-09-23T04:10:38.797Z,99.99
2017-09-23T04:11:47.664Z,99.99
2017-09-23T04:12:56.532Z,99.99
2017-09-23T04:14:05.077Z,99.99
2017-09-23T04:15:13.946Z,99.99
2017-09-23T04:16:23.132Z,99.99
2017-09-23T04:17:31.676Z,99.99
2017-09-23T04:18:40.222Z,99.99
2017-09-23T04:19:49.092Z,99.99
2017-09-23T04:20:58.290Z,99.99
2017-09-23T04:22:06.830Z,99.99
2017-09-23T04:23:16.362Z,99.99
2017-09-23T04:24:24.896Z,99.99
2017-09-23T04:25:33.439Z,99.99
2017-09-23T04:26:42.312Z,99.99
2017-09-23T04:27:50.855Z,99.99
2017-09-23T04:28:59.718Z,99.99
2017-09-23T04:30:08.580Z,99.99
2017-09-23T04:31:18.095Z,99.99
2017-09-23T04:32:26.634Z,99.99
2017-09-23T04:33:35.497Z,99.99
2017-09-23T04:34:44.362Z,99.99
2017-09-23T04:35:53.552Z,99.99
2017-09-23T04:37:02.097Z,99.99
2017-09-23T04:38:10.640Z,99.99
2017-09-23T04:39:19.183Z,99.99
2017-09-23T04:40:28.050Z,99.99
2017-09-23T04:41:36.688Z,99.99
2017-09-23T04:42:45.592Z,99.99
2017-09-23T04:43:54.462Z,99.99
2017-09-23T04:45:03.009Z,99.99
2017-09-23T04:46:12.304Z,99.99
2017-09-23T04:47:21.671Z,99.99
2017-09-23T04:48:30.862Z,99.99
2017-09-23T04:49:39.734Z,99.99
2017-09-23T04:50:48.397Z,99.99
2017-09-23T04:51:57.703Z,99.99
2017-09-23T04:53:06.596Z,99.99
2017-09-23T04:54:15.141Z,99.99
2017-09-23T04:55:24.331Z,99.99
2017-09-23T04:56:33.198Z,99.99
2017-09-23T04:57:42.068Z,99.99
2017-09-23T04:58:51.255Z,99.99
2017-09-23T05:00:00.123Z,99.99
2017-09-23T05:01:08.672Z,99.99
2017-09-23T05:02:17.213Z,99.99
2017-09-23T05:03:26.079Z,99.99
2017-09-23T05:04:34.947Z,99.99
2017-09-23T05:05:43.493Z,99.99
2017-09-23T05:06:52.683Z,99.99
2017-09-23T05:08:01.260Z,99.99
2017-09-23T05:09:10.131Z,99.99
2017-09-23T05:10:18.678Z,99.99
2017-09-23T05:11:27.544Z,99.99
2017-09-23T05:12:36.095Z,99.99
2017-09-23T05:13:44.687Z,99.99
2017-09-23T05:14:53.553Z,99.99
2017-09-23T05:16:02.093Z,99.99
2017-09-23T05:17:10.982Z,99.99
2017-09-23T05:18:19.507Z,99.99
2017-09-23T05:19:28.373Z,99.99
2017-09-23T05:20:36.916Z,99.99
2017-09-23T05:21:45.786Z,99.99
2017-09-23T05:22:54.651Z,99.99
2017-09-23T05:24:03.843Z,99.99
2017-09-23T05:25:13.034Z,99.99
2017-09-23T05:26:21.577Z,99.99
2017-09-23T05:27:30.445Z,99.99
2017-09-23T05:28:39.313Z,99.99
2017-09-23T05:29:48.186Z,99.99
2017-09-23T05:30:57.051Z,99.99
2017-09-23T05:32:05.916Z,99.99
2017-09-23T05:33:14.458Z,99.99
2017-09-23T05:34:23.327Z,99.99
2017-09-23T05:35:32.192Z,99.99
2017-09-23T05:36:40.736Z,99.99
2017-09-23T05:37:49.284Z,99.99
2017-09-23T05:38:58.151Z,99.99
2017-09-23T05:40:07.017Z,99.99
2017-09-23T05:41:16.207Z,99.99
2017-09-23T05:42:25.071Z,99.99
2017-09-23T05:43:34.265Z,99.99
2017-09-23T05:44:42.807Z,99.99
2017-09-23T05:45:51.721Z,99.99
2017-09-23T05:47:00.591Z,99.99
2017-09-23T05:48:09.135Z,99.99
2017-09-23T05:49:18.005Z,99.99
2017-09-23T05:50:26.874Z,99.99
2017-09-23T05:51:35.418Z,99.99
2017-09-23T05:52:44.283Z,99.99
2017-09-23T05:53:52.826Z,99.99
2017-09-23T05:55:02.011Z,99.99
2017-09-23T05:56:10.877Z,99.99
2017-09-23T05:57:19.743Z,99.99
2017-09-23T05:58:28.285Z,99.99
2017-09-23T05:59:37.508Z,99.99
2017-09-23T06:00:46.051Z,99.99
2017-09-23T06:01:54.593Z,99.99
2017-09-23T06:03:03.461Z,99.99
2017-09-23T06:04:12.649Z,99.99
2017-09-23T06:05:21.848Z,99.99
2017-09-23T06:06:31.543Z,99.99
2017-09-23T06:07:40.084Z,99.99
2017-09-23T06:08:48.628Z,99.99
2017-09-23T06:09:57.496Z,99.99
2017-09-23T06:11:07.009Z,99.99
2017-09-23T06:12:15.874Z,99.99
2017-09-23T06:13:25.065Z,99.99
2017-09-23T06:14:34.284Z,99.99
2017-09-23T06:15:42.829Z,99.99
2017-09-23T06:16:51.373Z,99.99
2017-09-23T06:17:59.919Z,99.99
2017-09-23T06:19:08.790Z,99.99
2017-09-23T06:20:17.332Z,99.99
2017-09-23T06:21:26.202Z,99.99
2017-09-23T06:22:35.069Z,99.99
2017-09-23T06:23:44.257Z,99.99
2017-09-23T06:24:52.800Z,99.99
2017-09-23T06:26:01.667Z,99.99
2017-09-23T06:27:10.540Z,99.99
2017-09-23T06:28:19.740Z,99.99
2017-09-23T06:29:28.284Z,99.99
2017-09-23T06:30:37.804Z,99.99
2017-09-23T06:31:46.998Z,99.99
2017-09-23T06:32:55.866Z,99.99
2017-09-23T06:34:04.728Z,99.99
2017-09-23T06:35:13.628Z,99.99
2017-09-23T06:36:22.821Z,99.99
2017-09-23T06:37:31.992Z,99.99
2017-09-23T06:38:40.859Z,99.99
2017-09-23T06:39:49.721Z,99.99
2017-09-23T06:40:58.591Z,99.99
2017-09-23T06:42:07.464Z,99.99
2017-09-23T06:43:16.010Z,99.99
2017-09-23T06:44:24.875Z,99.99
2017-09-23T06:45:33.418Z,99.99
2017-09-23T06:46:41.963Z,99.99
2017-09-23T06:47:50.511Z,99.99
2017-09-23T06:48:59.700Z,99.99
2017-09-23T06:50:08.245Z,99.99
2017-09-23T06:51:17.122Z,99.99
2017-09-23T06:52:26.638Z,99.99
2017-09-23T06:53:35.183Z,99.99
2017-09-23T06:54:43.727Z,99.99
2017-09-23T06:55:52.911Z,99.99
2017-09-23T06:57:01.782Z,99.99
2017-09-23T06:58:10.330Z,99.99
2017-09-23T06:59:19.197Z,99.99
2017-09-23T07:00:28.387Z,99.99
2017-09-23T07:01:37.255Z,99.99
2017-09-23T07:02:46.123Z,99.99
2017-09-23T07:03:54.995Z,99.99
2017-09-23T07:05:03.547Z,99.99
2017-09-23T07:06:12.418Z,99.99
2017-09-23T07:07:21.611Z,99.99
2017-09-23T07:08:30.801Z,99.99
2017-09-23T07:09:40.322Z,99.99
2017-09-23T07:10:48.869Z,99.99
2017-09-23T07:11:57.415Z,99.99
2017-09-23T07:13:06.287Z,99.99
2017-09-23T07:14:15.161Z,99.99
2017-09-23T07:15:24.348Z,99.99
2017-09-23T07:16:32.893Z,99.99
2017-09-23T07:17:41.763Z,99.99
2017-09-23T07:18:50.633Z,99.99
2017-09-23T07:19:59.501Z,99.99
2017-09-23T07:21:08.370Z,99.99
2017-09-23T07:22:16.914Z,99.99
2017-09-23T07:23:25.457Z,99.99
2017-09-23T07:24:34.002Z,99.99
2017-09-23T07:25:43.189Z,99.99
2017-09-23T07:26:52.061Z,99.99
2017-09-23T07:28:00.615Z,99.99
2017-09-23T07:29:09.484Z,99.99
2017-09-23T07:30:18.027Z,99.99
2017-09-23T07:31:26.575Z,99.99
2017-09-23T07:32:35.117Z,99.99
2017-09-23T07:33:43.991Z,99.99
2017-09-23T07:34:52.859Z,99.99
2017-09-23T07:36:01.406Z,99.99
2017-09-23T07:37:09.946Z,99.99
2017-09-23T07:38:18.819Z,99.99
2017-09-23T07:39:27.692Z,99.99
2017-09-23T07:40:36.233Z,99.99
2017-09-23T07:41:45.128Z,99.99
2017-09-23T07:42:53.694Z,99.99
2017-09-23T07:44:02.241Z,99.99
2017-09-23T07:45:11.109Z,99.99
2017-09-23T07:46:19.652Z,99.99
2017-09-23T07:47:28.840Z,99.99
2017-09-23T07:48:37.391Z,99.99
2017-09-23T07:49:46.257Z,99.99
2017-09-23T07:50:55.123Z,99.99
2017-09-23T07:52:05.766Z,99.99
2017-09-23T07:53:14.310Z,99.99
2017-09-23T07:54:22.855Z,99.99
2017-09-23T07:55:31.730Z,99.99
2017-09-23T07:56:40.285Z,99.99
2017-09-23T07:57:48.833Z,99.99
2017-09-23T07:58:57.379Z,99.99
2017-09-23T08:00:05.920Z,99.99
2017-09-23T08:01:14.785Z,99.99
2017-09-23T08:02:23.655Z,99.99
2017-09-23T08:03:32.857Z,99.99
2017-09-23T08:04:41.403Z,99.99
2017-09-23T08:05:49.949Z,99.99
2017-09-23T08:06:58.497Z,99.99
2017-09-23T08:08:07.686Z,99.99
2017-09-23T08:09:16.231Z,99.99
2017-09-23T08:10:24.784Z,99.99
2017-09-23T08:11:33.343Z,99.99
2017-09-23T08:12:42.952Z,99.99
2017-09-23T08:13:52.157Z,99.99
2017-09-23T08:15:00.712Z,99.99
2017-09-23T08:16:09.272Z,99.99
2017-09-23T08:17:18.506Z,99.99
2017-09-23T08:18:27.387Z,99.99
2017-09-23T08:19:36.267Z,99.99
2017-09-23T08:20:45.143Z,99.99
2017-09-23T08:21:53.691Z,99.99
2017-09-23T08:23:02.880Z,99.99
2017-09-23T08:24:11.426Z,99.99
2017-09-23T08:25:20.298Z,99.99
2017-09-23T08:26:29.489Z,99.99
2017-09-23T08:27:38.354Z,99.99
2017-09-23T08:28:46.902Z,99.99
2017-09-23T08:29:55.445Z,99.99
2017-09-23T08:31:04.315Z,99.99
2017-09-23T08:32:12.860Z,99.99
2017-09-23T08:33:22.052Z,99.99
2017-09-23T08:34:30.601Z,99.99
2017-09-23T08:35:39.466Z,99.99
2017-09-23T08:36:48.012Z,99.99
2017-09-23T08:37:57.534Z,99.99
2017-09-23T08:39:06.399Z,99.99
2017-09-23T08:40:15.265Z,99.99
2017-09-23T08:41:24.132Z,99.99
2017-09-23T08:42:32.679Z,99.99
2017-09-23T08:43:41.551Z,99.99
2017-09-23T08:44:50.098Z,99.99
2017-09-23T08:45:58.965Z,99.99
2017-09-23T08:47:07.832Z,99.99
2017-09-23T08:48:16.703Z,99.99
2017-09-23T08:49:25.572Z,99.99
2017-09-23T08:50:34.118Z,99.99
2017-09-23T08:51:43.637Z,99.99
2017-09-23T08:52:52.829Z,99.99
2017-09-23T08:54:01.695Z,99.99
2017-09-23T08:55:10.886Z,99.99
2017-09-23T08:56:19.759Z,99.99
2017-09-23T08:57:28.648Z,99.99
2017-09-23T08:58:37.520Z,99.99
2017-09-23T08:59:46.388Z,99.99
2017-09-23T09:00:55.578Z,99.99
2017-09-23T09:02:04.452Z,99.99
2017-09-23T09:03:13.000Z,99.99
2017-09-23T09:04:21.868Z,99.99
2017-09-23T09:05:30.416Z,99.99
2017-09-23T09:06:39.613Z,99.99
2017-09-23T09:07:48.158Z,99.99
2017-09-23T09:08:57.030Z,99.99
2017-09-23T09:10:05.573Z,99.99
2017-09-23T09:11:14.122Z,99.99
2017-09-23T09:12:22.995Z,99.99
2017-09-23T09:13:31.542Z,99.99
2017-09-23T09:14:40.412Z,99.99
2017-09-23T09:15:48.958Z,99.99
2017-09-23T09:16:57.830Z,99.99
2017-09-23T09:18:06.702Z,99.99
2017-09-23T09:19:15.572Z,99.99
2017-09-23T09:20:24.116Z,99.99
2017-09-23T09:21:33.307Z,99.99
2017-09-23T09:22:42.179Z,99.99
2017-09-23T09:23:50.724Z,99.99
2017-09-23T09:24:59.598Z,99.99
2017-09-23T09:26:08.145Z,99.99
2017-09-23T09:27:16.693Z,99.99
2017-09-23T09:28:25.564Z,99.99
2017-09-23T09:29:34.430Z,99.99
2017-09-23T09:30:43.300Z,99.99
2017-09-23T09:31:52.171Z,99.99
2017-09-23T09:33:00.719Z,99.99
2017-09-23T09:34:09.268Z,99.99
2017-09-23T09:35:17.814Z,99.99
2017-09-23T09:36:26.364Z,99.99
2017-09-23T09:37:35.233Z,99.99
2017-09-23T09:38:43.782Z,99.99
2017-09-23T09:39:52.327Z,99.99
2017-09-23T09:41:01.200Z,99.99
2017-09-23T09:42:10.714Z,99.99
2017-09-23T09:43:19.257Z,99.99
2017-09-23T09:44:27.806Z,99.99
2017-09-23T09:45:36.683Z,99.99
2017-09-23T09:46:45.230Z,99.99
2017-09-23T09:47:53.779Z,99.99
2017-09-23T09:49:02.645Z,99.99
2017-09-23T09:50:11.514Z,99.99
2017-09-23T09:51:20.380Z,99.99
2017-09-23T09:52:28.930Z,99.99
2017-09-23T09:53:37.802Z,99.99
2017-09-23T09:54:46.994Z,99.99
2017-09-23T09:55:55.866Z,99.99
2017-09-23T09:57:04.743Z,99.99
2017-09-23T09:58:13.936Z,99.99
2017-09-23T09:59:22.486Z,99.99
2017-09-23T10:00:31.677Z,99.99
2017-09-23T10:01:40.547Z,99.99
2017-09-23T10:02:49.422Z,99.99
2017-09-23T10:03:58.618Z,99.99
2017-09-23T10:05:07.487Z,99.99
2017-09-23T10:06:16.039Z,99.99
2017-09-23T10:07:25.228Z,99.99
2017-09-23T10:08:34.102Z,99.99
2017-09-23T10:09:42.649Z,99.99
2017-09-23T10:10:51.515Z,99.99
2017-09-23T10:12:00.709Z,99.99
2017-09-23T10:13:09.581Z,99.99
2017-09-23T10:14:18.771Z,99.99
2017-09-23T10:15:27.319Z,99.99
2017-09-23T10:16:36.516Z,99.99
2017-09-23T10:17:45.387Z,99.99
2017-09-23T10:18:53.936Z,99.99
2017-09-23T10:20:02.809Z,99.99
2017-09-23T10:21:11.678Z,99.99
2017-09-23T10:22:20.550Z,99.99
2017-09-23T10:23:29.422Z,99.99
2017-09-23T10:24:37.972Z,99.99
2017-09-23T10:25:46.844Z,99.99
2017-09-23T10:26:55.391Z,99.99
2017-09-23T10:28:04.262Z,99.99
2017-09-23T10:29:13.136Z,99.99
2017-09-23T10:30:21.691Z,99.99
2017-09-23T10:31:30.891Z,99.99
2017-09-23T10:32:40.093Z,99.99
2017-09-23T10:33:48.646Z,99.99
2017-09-23T10:34:57.193Z,99.99
2017-09-23T10:36:05.742Z,99.99
2017-09-23T10:37:14.295Z,99.99
2017-09-23T10:38:23.828Z,99.99
2017-09-23T10:39:32.376Z,99.99
2017-09-23T10:40:40.927Z,99.99
2017-09-23T10:41:49.476Z,99.99
2017-09-23T10:42:58.031Z,99.99
2017-09-23T10:44:06.631Z,99.99
2017-09-23T10:45:15.499Z,99.99
2017-09-23T10:46:24.055Z,99.99
2017-09-23T10:47:32.598Z,99.99
2017-09-23T10:48:41.788Z,99.99
2017-09-23T10:49:50.664Z,99.99
2017-09-23T10:50:59.211Z,99.99
2017-09-23T10:52:08.079Z,99.99
2017-09-23T10:53:16.628Z,99.99
2017-09-23T10:54:25.494Z,99.99
2017-09-23T10:55:34.685Z,99.99
2017-09-23T10:56:43.554Z,99.99
2017-09-23T10:57:52.100Z,99.99
2017-09-23T10:59:00.646Z,99.99
2017-09-23T11:00:09.396Z,99.99
2017-09-23T11:01:17.945Z,99.99
2017-09-23T11:02:26.813Z,99.99
2017-09-23T11:03:35.682Z,99.99
2017-09-23T11:04:44.229Z,99.99
2017-09-23T11:05:52.773Z,99.99
2017-09-23T11:07:01.322Z,99.99
2017-09-23T11:08:10.190Z,99.99
2017-09-23T11:09:18.736Z,99.99
2017-09-23T11:10:27.605Z,99.99
2017-09-23T11:11:36.153Z,99.99
2017-09-23T11:12:45.031Z,99.99
2017-09-23T11:13:53.902Z,99.99
2017-09-23T11:15:02.447Z,99.99
2017-09-23T11:16:10.992Z,99.99
2017-09-23T11:17:19.539Z,99.99
2017-09-23T11:18:28.084Z,99.99
2017-09-23T11:19:37.281Z,99.99
2017-09-23T11:20:45.825Z,99.99
2017-09-23T11:21:55.014Z,99.99
2017-09-23T11:23:04.204Z,99.99
2017-09-23T11:24:12.775Z,99.99
2017-09-23T11:25:21.693Z,99.99
2017-09-23T11:26:30.241Z,99.99
2017-09-23T11:27:38.784Z,99.99
2017-09-23T11:28:47.655Z,99.99
2017-09-23T11:29:56.528Z,99.99
2017-09-23T11:31:05.398Z,99.99
2017-09-23T11:32:14.591Z,99.99
2017-09-23T11:33:23.137Z,99.99
2017-09-23T11:34:32.328Z,99.99
2017-09-23T11:35:41.524Z,99.99
2017-09-23T11:36:50.396Z,99.99
2017-09-23T11:37:58.958Z,99.99
2017-09-23T11:39:07.573Z,99.99
2017-09-23T11:40:16.879Z,99.99
2017-09-23T11:41:25.422Z,99.99
2017-09-23T11:42:34.295Z,99.99
2017-09-23T11:43:43.168Z,99.99
2017-09-23T11:44:52.037Z,99.99
2017-09-23T11:46:00.581Z,99.99
2017-09-23T11:47:09.129Z,99.99
2017-09-23T11:48:17.997Z,99.99
2017-09-23T11:49:26.541Z,99.99
2017-09-23T11:50:35.411Z,99.99
2017-09-23T11:51:43.957Z,99.99
2017-09-23T11:52:52.667Z,99.99
2017-09-23T11:54:01.211Z,99.99
2017-09-23T11:55:09.758Z,99.99
2017-09-23T11:56:18.630Z,99.99
2017-09-23T11:57:27.500Z,99.99
2017-09-23T11:58:36.047Z,99.99
2017-09-23T11:59:44.591Z,99.99
2017-09-23T12:00:53.468Z,99.99
2017-09-23T12:02:02.017Z,99.99
2017-09-23T12:03:10.884Z,99.99
2017-09-23T12:04:19.432Z,99.99
2017-09-23T12:05:28.300Z,99.99
2017-09-23T12:06:36.850Z,99.99
2017-09-23T12:07:46.044Z,99.99
2017-09-23T12:08:54.922Z,99.99
2017-09-23T12:10:03.465Z,99.99
2017-09-23T12:11:12.020Z,99.99
2017-09-23T12:12:20.890Z,99.99
2017-09-23T12:13:29.486Z,99.99
2017-09-23T12:14:38.032Z,99.99
2017-09-23T12:15:47.043Z,99.99
2017-09-23T12:16:55.589Z,99.99
2017-09-23T12:18:04.135Z,99.99
2017-09-23T12:19:13.008Z,99.99
2017-09-23T12:20:21.549Z,99.99
2017-09-23T12:21:30.094Z,99.99
2017-09-23T12:22:38.643Z,99.99
2017-09-23T12:23:47.515Z,99.99
2017-09-23T12:24:56.385Z,99.99
2017-09-23T12:26:05.576Z,99.99
2017-09-23T12:27:14.443Z,99.99
2017-09-23T12:28:23.311Z,99.99
2017-09-23T12:29:31.857Z,99.99
2017-09-23T12:30:40.729Z,99.99
2017-09-23T12:31:49.273Z,99.99
2017-09-23T12:32:58.141Z,99.99
2017-09-23T12:34:06.689Z,99.78
2017-09-23T12:35:15.233Z,99.87
2017-09-23T12:36:23.779Z,99.99
2017-09-23T12:37:32.654Z,99.87
2017-09-23T12:38:41.203Z,99.99
2017-09-23T12:39:49.748Z,99.99
2017-09-23T12:40:58.942Z,99.99
2017-09-23T12:42:07.489Z,99.99
2017-09-23T12:43:16.356Z,99.99
2017-09-23T12:44:25.555Z,99.99
2017-09-23T12:45:34.429Z,99.99
2017-09-23T12:46:42.977Z,99.99
2017-09-23T12:47:51.522Z,99.99
2017-09-23T12:49:00.072Z,99.99
2017-09-23T12:50:08.941Z,99.99
2017-09-23T12:51:17.813Z,99.99
2017-09-23T12:52:26.360Z,99.99
2017-09-23T12:53:35.230Z,99.99
2017-09-23T12:54:44.102Z,99.99
2017-09-23T12:55:52.648Z,99.99
2017-09-23T12:57:01.519Z,99.99
2017-09-23T12:58:10.385Z,99.99
2017-09-23T12:59:18.937Z,99.99
2017-09-23T13:00:27.485Z,99.99
2017-09-23T13:01:36.357Z,99.99
2017-09-23T13:02:44.903Z,99.99
2017-09-23T13:03:56.390Z,99.99
2017-09-23T13:05:05.294Z,99.99
2017-09-23T13:06:14.127Z,99.99
2017-09-23T13:07:22.677Z,99.99
2017-09-23T13:08:31.548Z,99.99
2017-09-23T13:09:40.095Z,99.99
2017-09-23T13:10:49.289Z,99.99
2017-09-23T13:11:57.836Z,99.99
2017-09-23T13:13:06.389Z,99.99
2017-09-23T13:14:15.261Z,99.99
2017-09-23T13:15:24.744Z,99.99
2017-09-23T13:16:34.073Z,99.99
2017-09-23T13:17:43.052Z,99.99
2017-09-23T13:18:52.599Z,99.99
2017-09-23T13:20:01.466Z,99.99
2017-09-23T13:21:10.172Z,99.99
2017-09-23T13:22:18.729Z,99.99
2017-09-23T13:23:27.275Z,99.99
2017-09-23T13:24:35.824Z,99.99
2017-09-23T13:25:44.368Z,99.99
2017-09-23T13:26:53.238Z,99.99
2017-09-23T13:28:01.782Z,99.99
2017-09-23T13:29:10.330Z,99.99
2017-09-23T13:30:19.201Z,99.99
2017-09-23T13:31:27.747Z,99.99
2017-09-23T13:32:36.290Z,99.99
2017-09-23T13:33:45.163Z,99.99
2017-09-23T13:34:53.710Z,99.99
2017-09-23T13:36:02.583Z,99.99
2017-09-23T13:37:11.465Z,99.99
2017-09-23T13:38:20.006Z,99.99
2017-09-23T13:39:28.886Z,99.99
2017-09-23T13:40:38.401Z,99.99
2017-09-23T13:41:47.591Z,99.99
2017-09-23T13:42:56.458Z,99.99
2017-09-23T13:44:05.657Z,99.87
2017-09-23T13:45:14.850Z,99.4
2017-09-23T13:46:23.731Z,98.82
2017-09-23T13:47:32.598Z,98.82
2017-09-23T13:48:41.143Z,99.2
2017-09-23T13:49:49.691Z,99.3
2017-09-23T13:50:58.236Z,99.58
2017-09-23T13:52:07.105Z,98.63
2017-09-23T13:53:15.975Z,99.49
2017-09-23T13:54:24.849Z,98.53
2017-09-23T13:55:34.041Z,98.82
2017-09-23T13:56:43.238Z,98.91
2017-09-23T13:57:52.107Z,99.2
2017-09-23T13:59:00.652Z,99.2
2017-09-23T14:00:09.521Z,99.99
2017-09-23T14:01:18.068Z,98.63
2017-09-23T14:02:26.614Z,98.14
2017-09-23T14:03:35.488Z,98.24
2017-09-23T14:04:45.006Z,98.19
2017-09-23T14:05:53.875Z,99.25
2017-09-23T14:07:03.067Z,97.81
2017-09-23T14:08:11.945Z,96.94
2017-09-23T14:09:20.814Z,97.04
2017-09-23T14:10:29.366Z,97.71
2017-09-23T14:11:38.707Z,98.29
2017-09-23T14:12:47.254Z,99.15
2017-09-23T14:13:55.804Z,99.15
2017-09-23T14:15:04.348Z,99.92
2017-09-23T14:16:13.216Z,99.06
2017-09-23T14:17:22.087Z,98.96
2017-09-23T14:18:31.257Z,99.15
2017-09-23T14:19:40.448Z,99.25
2017-09-23T14:20:49.316Z,98.68
2017-09-23T14:21:58.188Z,98.63
2017-09-23T14:23:07.063Z,99.4
2017-09-23T14:24:15.938Z,99.58
2017-09-23T14:25:24.489Z,98.82
2017-09-23T14:26:33.361Z,98.53
2017-09-23T14:27:42.877Z,99.58
2017-09-23T14:28:52.086Z,99.3
2017-09-23T14:30:01.275Z,99.1
2017-09-23T14:31:09.821Z,99.01
2017-09-23T14:32:18.690Z,99.58
2017-09-23T14:33:27.237Z,98.91
2017-09-23T14:34:35.783Z,98.72
2017-09-23T14:35:44.650Z,98.82
2017-09-23T14:36:53.197Z,98.96
2017-09-23T14:38:01.749Z,99.54
2017-09-23T14:39:10.302Z,99.15
2017-09-23T14:40:19.171Z,99.63
2017-09-23T14:41:27.718Z,99.25
2017-09-23T14:42:37.231Z,99.73
2017-09-23T14:43:45.778Z,99.34
2017-09-23T14:44:54.325Z,99.92
2017-09-23T14:46:03.195Z,99.99